sensor_id;sensor_type;location;lat;lon;timestamp;pressure;altitude;pressure_sealevel;temperature;humidity
61014;BME280;46899;47.542;19.082;2023-05-08T00:00:23;100885.81;;;10.41;92.29
61014;BME280;46899;47.542;19.082;2023-05-08T00:03:26;100891.03;;;10.41;92.26
61014;BME280;46899;47.542;19.082;2023-05-08T00:06:29;100894.37;;;10.46;90.84
61014;BME280;46899;47.542;19.082;2023-05-08T00:09:32;100891.88;;;10.43;90.07
61014;BME280;46899;47.542;19.082;2023-05-08T00:12:35;100897.78;;;10.48;89.81
61014;BME280;46899;47.542;19.082;2023-05-08T00:15:38;100890.56;;;10.59;89.87
61014;BME280;46899;47.542;19.082;2023-05-08T00:18:40;100884.44;;;10.60;88.06
61014;BME280;46899;47.542;19.082;2023-05-08T00:21:43;100893.44;;;10.49;87.88
61014;BME280;46899;47.542;19.082;2023-05-08T00:24:45;100905.69;;;10.45;87.83
61014;BME280;46899;47.542;19.082;2023-05-08T00:27:48;100900.50;;;10.44;87.72
61014;BME280;46899;47.542;19.082;2023-05-08T00:30:52;100898.13;;;10.36;88.15
61014;BME280;46899;47.542;19.082;2023-05-08T00:33:55;100901.66;;;10.32;88.50
61014;BME280;46899;47.542;19.082;2023-05-08T00:36:57;100907.03;;;10.26;89.46
61014;BME280;46899;47.542;19.082;2023-05-08T00:40:00;100893.44;;;10.15;90.04
61014;BME280;46899;47.542;19.082;2023-05-08T00:43:02;100896.97;;;10.11;89.77
61014;BME280;46899;47.542;19.082;2023-05-08T00:46:05;100896.31;;;10.03;90.78
61014;BME280;46899;47.542;19.082;2023-05-08T00:49:07;100899.03;;;9.97;91.20
61014;BME280;46899;47.542;19.082;2023-05-08T00:52:15;100904.63;;;9.82;92.05
61014;BME280;46899;47.542;19.082;2023-05-08T00:55:18;100895.25;;;9.75;92.67
61014;BME280;46899;47.542;19.082;2023-05-08T00:58:21;100894.63;;;9.63;93.23
61014;BME280;46899;47.542;19.082;2023-05-08T01:01:25;100899.16;;;9.55;94.80
61014;BME280;46899;47.542;19.082;2023-05-08T01:04:28;100903.62;;;9.47;95.39
61014;BME280;46899;47.542;19.082;2023-05-08T01:07:31;100904.66;;;9.42;96.06
61014;BME280;46899;47.542;19.082;2023-05-08T01:10:43;100901.28;;;9.35;96.67
61014;BME280;46899;47.542;19.082;2023-05-08T01:17:08;100908.53;;;9.21;97.60
61014;BME280;46899;47.542;19.082;2023-05-08T01:33:12;100931.47;;;9.00;100.00
61014;BME280;46899;47.542;19.082;2023-05-08T01:36:33;100938.41;;;8.98;100.00
61014;BME280;46899;47.542;19.082;2023-05-08T01:39:38;100931.56;;;8.93;100.00
61014;BME280;46899;47.542;19.082;2023-05-08T01:42:47;100932.50;;;8.91;100.00
61014;BME280;46899;47.542;19.082;2023-05-08T01:45:50;100935.97;;;8.90;100.00
61014;BME280;46899;47.542;19.082;2023-05-08T01:52:17;100943.31;;;9.13;100.00
61014;BME280;46899;47.542;19.082;2023-05-08T01:55:26;100938.13;;;9.13;100.00
61014;BME280;46899;47.542;19.082;2023-05-08T01:58:32;100943.22;;;9.17;100.00
61014;BME280;46899;47.542;19.082;2023-05-08T02:01:36;100945.78;;;9.20;100.00
61014;BME280;46899;47.542;19.082;2023-05-08T02:04:41;100944.78;;;9.26;100.00
61014;BME280;46899;47.542;19.082;2023-05-08T02:07:44;100949.91;;;9.29;100.00
61014;BME280;46899;47.542;19.082;2023-05-08T02:10:48;100943.66;;;9.37;100.00
61014;BME280;46899;47.542;19.082;2023-05-08T02:13:52;100951.34;;;9.43;100.00
61014;BME280;46899;47.542;19.082;2023-05-08T02:16:55;100952.13;;;9.48;100.00
61014;BME280;46899;47.542;19.082;2023-05-08T02:19:58;100957.16;;;9.54;100.00
61014;BME280;46899;47.542;19.082;2023-05-08T02:23:03;100944.94;;;9.59;100.00
61014;BME280;46899;47.542;19.082;2023-05-08T02:26:06;100948.34;;;9.61;100.00
61014;BME280;46899;47.542;19.082;2023-05-08T02:29:09;100953.53;;;9.63;100.00
61014;BME280;46899;47.542;19.082;2023-05-08T02:32:13;100952.56;;;9.67;100.00
61014;BME280;46899;47.542;19.082;2023-05-08T02:35:17;100950.91;;;9.64;100.00
61014;BME280;46899;47.542;19.082;2023-05-08T02:38:21;100954.28;;;9.68;100.00
61014;BME280;46899;47.542;19.082;2023-05-08T02:41:27;100956.97;;;9.65;100.00
61014;BME280;46899;47.542;19.082;2023-05-08T02:44:31;100957.78;;;9.67;100.00
61014;BME280;46899;47.542;19.082;2023-05-08T02:47:50;100950.75;;;9.71;100.00
61014;BME280;46899;47.542;19.082;2023-05-08T02:50:56;100963.00;;;9.66;100.00
61014;BME280;46899;47.542;19.082;2023-05-08T02:54:05;100957.84;;;9.64;100.00
61014;BME280;46899;47.542;19.082;2023-05-08T03:00:17;100973.56;;;9.58;100.00
61014;BME280;46899;47.542;19.082;2023-05-08T03:03:22;100965.63;;;9.66;100.00
61014;BME280;46899;47.542;19.082;2023-05-08T03:06:27;100968.38;;;9.56;100.00
61014;BME280;46899;47.542;19.082;2023-05-08T03:09:46;100963.22;;;9.55;100.00
61014;BME280;46899;47.542;19.082;2023-05-08T03:12:50;100964.09;;;9.55;100.00
61014;BME280;46899;47.542;19.082;2023-05-08T03:15:59;100967.44;;;9.60;100.00
61014;BME280;46899;47.542;19.082;2023-05-08T03:19:04;100963.75;;;9.71;100.00
61014;BME280;46899;47.542;19.082;2023-05-08T03:22:08;100962.50;;;9.88;100.00
61014;BME280;46899;47.542;19.082;2023-05-08T03:25:12;100959.97;;;9.85;100.00
61014;BME280;46899;47.542;19.082;2023-05-08T03:28:17;100959.78;;;9.93;100.00
61014;BME280;46899;47.542;19.082;2023-05-08T03:31:20;100968.28;;;10.01;98.98
61014;BME280;46899;47.542;19.082;2023-05-08T03:34:26;100967.38;;;10.02;97.97
61014;BME280;46899;47.542;19.082;2023-05-08T03:37:29;100970.75;;;10.07;96.73
61014;BME280;46899;47.542;19.082;2023-05-08T03:40:32;100970.62;;;10.13;93.21
61014;BME280;46899;47.542;19.082;2023-05-08T03:43:38;100971.34;;;10.19;93.73
61014;BME280;46899;47.542;19.082;2023-05-08T03:46:42;100980.63;;;10.29;91.75
61014;BME280;46899;47.542;19.082;2023-05-08T03:49:47;100980.78;;;10.23;90.42
61014;BME280;46899;47.542;19.082;2023-05-08T03:52:51;100985.97;;;10.23;90.64
61014;BME280;46899;47.542;19.082;2023-05-08T03:55:53;100985.75;;;10.32;88.65
61014;BME280;46899;47.542;19.082;2023-05-08T04:05:35;100986.34;;;10.45;84.41
61014;BME280;46899;47.542;19.082;2023-05-08T04:09:02;100989.69;;;10.50;84.58
61014;BME280;46899;47.542;19.082;2023-05-08T04:15:09;100999.13;;;10.54;84.15
61014;BME280;46899;47.542;19.082;2023-05-08T04:18:17;101004.09;;;10.63;82.55
61014;BME280;46899;47.542;19.082;2023-05-08T04:21:22;101010.09;;;10.65;80.97
61014;BME280;46899;47.542;19.082;2023-05-08T04:24:26;101011.91;;;10.63;79.98
61014;BME280;46899;47.542;19.082;2023-05-08T04:27:30;101015.06;;;10.74;78.12
61014;BME280;46899;47.542;19.082;2023-05-08T04:30:33;101019.47;;;10.72;76.45
61014;BME280;46899;47.542;19.082;2023-05-08T04:33:36;101036.72;;;10.76;76.23
61014;BME280;46899;47.542;19.082;2023-05-08T04:36:39;101028.91;;;10.76;74.98
61014;BME280;46899;47.542;19.082;2023-05-08T04:39:42;101036.66;;;10.79;75.24
61014;BME280;46899;47.542;19.082;2023-05-08T04:42:45;101037.37;;;10.84;74.15
61014;BME280;46899;47.542;19.082;2023-05-08T04:45:49;101038.09;;;10.91;74.53
61014;BME280;46899;47.542;19.082;2023-05-08T04:48:52;101043.03;;;11.02;74.05
61014;BME280;46899;47.542;19.082;2023-05-08T04:51:55;101052.53;;;11.02;73.56
61014;BME280;46899;47.542;19.082;2023-05-08T04:54:58;101054.25;;;11.04;73.78
61014;BME280;46899;47.542;19.082;2023-05-08T04:58:01;101055.81;;;11.11;73.95
61014;BME280;46899;47.542;19.082;2023-05-08T05:01:04;101059.31;;;11.10;73.95
61014;BME280;46899;47.542;19.082;2023-05-08T05:04:07;101068.97;;;11.05;74.84
61014;BME280;46899;47.542;19.082;2023-05-08T05:07:09;101066.22;;;11.11;73.92
61014;BME280;46899;47.542;19.082;2023-05-08T05:10:12;101073.72;;;11.23;73.10
61014;BME280;46899;47.542;19.082;2023-05-08T05:13:15;101070.47;;;11.15;71.39
61014;BME280;46899;47.542;19.082;2023-05-08T05:16:18;101074.16;;;11.06;70.51
61014;BME280;46899;47.542;19.082;2023-05-08T05:19:21;101070.47;;;11.15;69.83
61014;BME280;46899;47.542;19.082;2023-05-08T05:22:23;101082.00;;;11.05;70.43
61014;BME280;46899;47.542;19.082;2023-05-08T05:25:27;101076.28;;;11.26;69.17
61014;BME280;46899;47.542;19.082;2023-05-08T05:28:29;101079.50;;;11.34;69.38
61014;BME280;46899;47.542;19.082;2023-05-08T05:31:33;101067.97;;;11.42;69.06
61014;BME280;46899;47.542;19.082;2023-05-08T05:34:35;101077.00;;;11.61;69.11
61014;BME280;46899;47.542;19.082;2023-05-08T05:37:38;101086.44;;;11.35;67.56
61014;BME280;46899;47.542;19.082;2023-05-08T05:40:41;101089.59;;;11.46;68.03
61014;BME280;46899;47.542;19.082;2023-05-08T05:43:44;101090.81;;;11.65;67.38
61014;BME280;46899;47.542;19.082;2023-05-08T05:46:46;101089.22;;;11.59;66.07
61014;BME280;46899;47.542;19.082;2023-05-08T05:49:49;101087.66;;;11.54;66.56
61014;BME280;46899;47.542;19.082;2023-05-08T05:52:51;101093.34;;;11.70;66.58
61014;BME280;46899;47.542;19.082;2023-05-08T05:55:54;101093.75;;;11.85;65.36
61014;BME280;46899;47.542;19.082;2023-05-08T05:58:57;101098.41;;;12.05;65.53
61014;BME280;46899;47.542;19.082;2023-05-08T06:02:00;101098.78;;;12.22;64.75
61014;BME280;46899;47.542;19.082;2023-05-08T06:05:03;101103.94;;;12.23;62.80
61014;BME280;46899;47.542;19.082;2023-05-08T06:08:06;101105.56;;;12.27;62.11
61014;BME280;46899;47.542;19.082;2023-05-08T06:11:10;101102.84;;;12.30;61.93
61014;BME280;46899;47.542;19.082;2023-05-08T06:14:13;101096.56;;;12.37;61.87
61014;BME280;46899;47.542;19.082;2023-05-08T06:17:15;101098.72;;;12.51;61.50
61014;BME280;46899;47.542;19.082;2023-05-08T06:20:20;101101.50;;;12.47;61.52
61014;BME280;46899;47.542;19.082;2023-05-08T06:23:22;101102.13;;;12.55;60.57
61014;BME280;46899;47.542;19.082;2023-05-08T06:26:25;101098.63;;;12.82;59.35
61014;BME280;46899;47.542;19.082;2023-05-08T06:29:28;101101.28;;;13.08;58.96
61014;BME280;46899;47.542;19.082;2023-05-08T06:32:30;101100.75;;;12.97;59.77
61014;BME280;46899;47.542;19.082;2023-05-08T06:35:33;101113.25;;;12.87;60.23
61014;BME280;46899;47.542;19.082;2023-05-08T06:38:36;101104.56;;;13.39;58.08
61014;BME280;46899;47.542;19.082;2023-05-08T06:41:38;101104.87;;;13.80;57.55
61014;BME280;46899;47.542;19.082;2023-05-08T06:44:41;101110.47;;;14.17;54.99
61014;BME280;46899;47.542;19.082;2023-05-08T06:47:44;101105.41;;;14.35;54.64
61014;BME280;46899;47.542;19.082;2023-05-08T06:50:46;101105.38;;;15.22;52.52
61014;BME280;46899;47.542;19.082;2023-05-08T06:53:49;101129.59;;;17.54;45.56
61014;BME280;46899;47.542;19.082;2023-05-08T06:56:52;101117.94;;;18.72;41.97
61014;BME280;46899;47.542;19.082;2023-05-08T06:59:55;101126.00;;;18.53;42.94
61014;BME280;46899;47.542;19.082;2023-05-08T07:02:58;101121.37;;;17.93;43.87
61014;BME280;46899;47.542;19.082;2023-05-08T07:06:01;101119.41;;;17.29;45.07
61014;BME280;46899;47.542;19.082;2023-05-08T07:09:03;101120.16;;;16.61;46.92
61014;BME280;46899;47.542;19.082;2023-05-08T07:12:06;101122.66;;;17.00;46.16
61014;BME280;46899;47.542;19.082;2023-05-08T07:15:09;101130.44;;;18.20;43.36
61014;BME280;46899;47.542;19.082;2023-05-08T07:18:27;101124.41;;;21.48;35.95
61014;BME280;46899;47.542;19.082;2023-05-08T07:21:30;101122.38;;;22.40;33.66
61014;BME280;46899;47.542;19.082;2023-05-08T07:24:33;101130.00;;;23.63;32.22
61014;BME280;46899;47.542;19.082;2023-05-08T07:27:35;101116.56;;;22.71;32.62
61014;BME280;46899;47.542;19.082;2023-05-08T07:30:38;101116.69;;;22.57;32.20
61014;BME280;46899;47.542;19.082;2023-05-08T07:33:41;101124.38;;;23.90;31.16
61014;BME280;46899;47.542;19.082;2023-05-08T07:36:44;101124.47;;;23.66;31.01
61014;BME280;46899;47.542;19.082;2023-05-08T07:39:46;101133.44;;;24.65;29.16
61014;BME280;46899;47.542;19.082;2023-05-08T07:42:49;101135.03;;;27.60;25.47
61014;BME280;46899;47.542;19.082;2023-05-08T07:45:52;101128.56;;;29.69;22.45
61014;BME280;46899;47.542;19.082;2023-05-08T07:48:55;101130.38;;;31.20;20.99
61014;BME280;46899;47.542;19.082;2023-05-08T07:51:57;101141.66;;;30.23;21.22
61014;BME280;46899;47.542;19.082;2023-05-08T07:55:00;101141.47;;;31.41;20.65
61014;BME280;46899;47.542;19.082;2023-05-08T07:58:02;101140.19;;;32.71;19.39
61014;BME280;46899;47.542;19.082;2023-05-08T08:01:05;101140.50;;;31.58;19.94
61014;BME280;46899;47.542;19.082;2023-05-08T08:04:08;101124.44;;;32.82;18.97
61014;BME280;46899;47.542;19.082;2023-05-08T08:07:10;101124.84;;;33.02;19.09
61014;BME280;46899;47.542;19.082;2023-05-08T08:10:13;101130.88;;;33.27;18.17
61014;BME280;46899;47.542;19.082;2023-05-08T08:13:16;101136.91;;;34.18;17.60
61014;BME280;46899;47.542;19.082;2023-05-08T08:16:19;101131.34;;;32.77;18.45
61014;BME280;46899;47.542;19.082;2023-05-08T08:19:22;101128.47;;;30.80;20.30
61014;BME280;46899;47.542;19.082;2023-05-08T08:22:27;101121.66;;;31.42;19.94
61014;BME280;46899;47.542;19.082;2023-05-08T08:25:29;101126.88;;;30.53;20.25
61014;BME280;46899;47.542;19.082;2023-05-08T08:28:32;101115.47;;;30.59;20.72
61014;BME280;46899;47.542;19.082;2023-05-08T08:31:34;101116.78;;;31.45;19.44
61014;BME280;46899;47.542;19.082;2023-05-08T08:34:37;101122.25;;;32.78;18.38
61014;BME280;46899;47.542;19.082;2023-05-08T08:37:39;101120.66;;;33.74;17.35
61014;BME280;46899;47.542;19.082;2023-05-08T08:40:42;101110.81;;;30.77;19.62
61014;BME280;46899;47.542;19.082;2023-05-08T08:43:45;101110.00;;;31.82;18.66
61014;BME280;46899;47.542;19.082;2023-05-08T08:46:51;101119.47;;;33.39;17.64
61014;BME280;46899;47.542;19.082;2023-05-08T08:49:54;101112.56;;;31.59;18.84
61014;BME280;46899;47.542;19.082;2023-05-08T08:53:15;101110.09;;;32.82;17.55
61014;BME280;46899;47.542;19.082;2023-05-08T08:56:22;101105.00;;;32.64;17.44
61014;BME280;46899;47.542;19.082;2023-05-08T08:59:25;101113.72;;;32.97;17.26
61014;BME280;46899;47.542;19.082;2023-05-08T09:02:28;101106.66;;;31.71;18.00
61014;BME280;46899;47.542;19.082;2023-05-08T09:05:32;101100.97;;;30.94;18.88
61014;BME280;46899;47.542;19.082;2023-05-08T09:08:36;101095.25;;;28.48;20.99
61014;BME280;46899;47.542;19.082;2023-05-08T09:11:39;101100.59;;;29.71;20.10
61014;BME280;46899;47.542;19.082;2023-05-08T09:14:42;101092.16;;;27.89;21.45
61014;BME280;46899;47.542;19.082;2023-05-08T09:17:45;101086.47;;;25.06;25.25
61014;BME280;46899;47.542;19.082;2023-05-08T09:20:47;101094.84;;;23.59;27.95
61014;BME280;46899;47.542;19.082;2023-05-08T09:24:01;101088.06;;;22.62;28.23
61014;BME280;46899;47.542;19.082;2023-05-08T09:27:03;101088.84;;;21.13;30.57
61014;BME280;46899;47.542;19.082;2023-05-08T09:30:18;101080.00;;;21.39;30.75
61014;BME280;46899;47.542;19.082;2023-05-08T09:33:21;101081.41;;;22.08;30.33
61014;BME280;46899;47.542;19.082;2023-05-08T09:36:25;101090.94;;;21.60;31.00
61014;BME280;46899;47.542;19.082;2023-05-08T09:39:30;101083.53;;;21.52;31.82
61014;BME280;46899;47.542;19.082;2023-05-08T09:42:39;101095.78;;;21.28;32.09
61014;BME280;46899;47.542;19.082;2023-05-08T09:45:41;101079.09;;;20.19;32.90
61014;BME280;46899;47.542;19.082;2023-05-08T09:48:44;101080.09;;;19.90;33.78
61014;BME280;46899;47.542;19.082;2023-05-08T09:51:53;101075.62;;;20.33;33.68
61014;BME280;46899;47.542;19.082;2023-05-08T09:55:03;101082.03;;;20.70;33.26
61014;BME280;46899;47.542;19.082;2023-05-08T09:58:05;101080.38;;;21.08;32.84
61014;BME280;46899;47.542;19.082;2023-05-08T10:04:33;101074.19;;;20.95;32.58
61014;BME280;46899;47.542;19.082;2023-05-08T10:07:36;101074.81;;;21.12;32.86
61014;BME280;46899;47.542;19.082;2023-05-08T10:10:39;101068.38;;;21.02;32.43
61014;BME280;46899;47.542;19.082;2023-05-08T10:13:45;101060.31;;;21.43;32.57
61014;BME280;46899;47.542;19.082;2023-05-08T10:16:48;101065.00;;;21.52;32.33
61014;BME280;46899;47.542;19.082;2023-05-08T10:19:53;101052.47;;;21.67;31.69
61014;BME280;46899;47.542;19.082;2023-05-08T10:22:57;101059.34;;;21.69;31.87
61014;BME280;46899;47.542;19.082;2023-05-08T10:26:01;101054.81;;;21.71;31.73
61014;BME280;46899;47.542;19.082;2023-05-08T10:29:12;101046.66;;;21.37;31.80
61014;BME280;46899;47.542;19.082;2023-05-08T10:32:18;101049.59;;;21.07;32.10
61014;BME280;46899;47.542;19.082;2023-05-08T10:35:21;101046.78;;;20.96;31.75
61014;BME280;46899;47.542;19.082;2023-05-08T10:38:24;101051.75;;;21.00;31.36
61014;BME280;46899;47.542;19.082;2023-05-08T10:41:27;101044.88;;;20.98;31.32
61014;BME280;46899;47.542;19.082;2023-05-08T10:44:30;101041.38;;;21.49;31.10
61014;BME280;46899;47.542;19.082;2023-05-08T10:54:13;101024.81;;;21.71;29.96
61014;BME280;46899;47.542;19.082;2023-05-08T10:57:18;101028.75;;;21.65;29.79
61014;BME280;46899;47.542;19.082;2023-05-08T11:00:21;101027.75;;;21.79;30.13
61014;BME280;46899;47.542;19.082;2023-05-08T11:03:24;101025.56;;;21.60;30.24
61014;BME280;46899;47.542;19.082;2023-05-08T11:06:46;101032.12;;;21.30;31.45
61014;BME280;46899;47.542;19.082;2023-05-08T11:09:50;101026.87;;;20.90;31.64
61014;BME280;46899;47.542;19.082;2023-05-08T11:12:53;101023.13;;;21.32;31.42
61014;BME280;46899;47.542;19.082;2023-05-08T11:15:56;101008.19;;;21.69;30.83
61014;BME280;46899;47.542;19.082;2023-05-08T11:19:17;100999.94;;;22.10;30.26
61014;BME280;46899;47.542;19.082;2023-05-08T11:22:21;101012.87;;;22.14;30.12
61014;BME280;46899;47.542;19.082;2023-05-08T11:25:40;101013.03;;;21.75;29.96
61014;BME280;46899;47.542;19.082;2023-05-08T11:31:56;101010.69;;;22.08;29.33
61014;BME280;46899;47.542;19.082;2023-05-08T11:34:59;101010.69;;;22.32;29.49
61014;BME280;46899;47.542;19.082;2023-05-08T11:41:23;100999.50;;;21.92;30.71
61014;BME280;46899;47.542;19.082;2023-05-08T11:44:27;101005.44;;;21.58;31.16
61014;BME280;46899;47.542;19.082;2023-05-08T11:47:31;101004.06;;;21.27;32.07
61014;BME280;46899;47.542;19.082;2023-05-08T11:50:38;100995.25;;;21.90;31.33
61014;BME280;46899;47.542;19.082;2023-05-08T11:53:41;101006.16;;;22.21;30.83
61014;BME280;46899;47.542;19.082;2023-05-08T11:56:45;101002.75;;;22.32;30.35
61014;BME280;46899;47.542;19.082;2023-05-08T11:59:49;101000.22;;;21.94;29.92
61014;BME280;46899;47.542;19.082;2023-05-08T12:02:53;100994.78;;;22.08;29.28
61014;BME280;46899;47.542;19.082;2023-05-08T12:05:56;101000.59;;;22.13;29.75
61014;BME280;46899;47.542;19.082;2023-05-08T12:08:59;100990.72;;;21.66;30.73
61014;BME280;46899;47.542;19.082;2023-05-08T12:12:03;100986.97;;;21.81;31.20
61014;BME280;46899;47.542;19.082;2023-05-08T12:15:14;100993.50;;;22.14;30.37
61014;BME280;46899;47.542;19.082;2023-05-08T12:18:17;100989.47;;;22.08;30.16
61014;BME280;46899;47.542;19.082;2023-05-08T12:21:20;101001.09;;;21.57;29.46
61014;BME280;46899;47.542;19.082;2023-05-08T12:24:23;100990.78;;;21.77;30.00
61014;BME280;46899;47.542;19.082;2023-05-08T12:27:27;100999.91;;;21.73;30.82
61014;BME280;46899;47.542;19.082;2023-05-08T12:30:30;100997.69;;;21.80;30.28
61014;BME280;46899;47.542;19.082;2023-05-08T12:33:33;100987.91;;;21.93;31.06
61014;BME280;46899;47.542;19.082;2023-05-08T12:36:36;100989.91;;;22.02;28.66
61014;BME280;46899;47.542;19.082;2023-05-08T12:39:42;100990.09;;;21.50;29.95
61014;BME280;46899;47.542;19.082;2023-05-08T12:45:49;100996.34;;;22.11;28.82
61014;BME280;46899;47.542;19.082;2023-05-08T12:49:00;101001.25;;;22.04;27.81
61014;BME280;46899;47.542;19.082;2023-05-08T12:52:06;101008.28;;;21.80;28.03
61014;BME280;46899;47.542;19.082;2023-05-08T12:55:25;101004.16;;;21.13;28.62
61014;BME280;46899;47.542;19.082;2023-05-08T12:58:29;100996.44;;;21.35;29.35
61014;BME280;46899;47.542;19.082;2023-05-08T13:01:33;101006.72;;;21.40;29.34
61014;BME280;46899;47.542;19.082;2023-05-08T13:04:36;101008.38;;;21.03;30.04
61014;BME280;46899;47.542;19.082;2023-05-08T13:07:40;101000.25;;;21.19;27.96
61014;BME280;46899;47.542;19.082;2023-05-08T13:13:48;101005.88;;;20.87;28.88
61014;BME280;46899;47.542;19.082;2023-05-08T13:16:50;101009.03;;;20.80;29.51
61014;BME280;46899;47.542;19.082;2023-05-08T13:19:53;101002.31;;;21.01;29.51
61014;BME280;46899;47.542;19.082;2023-05-08T13:22:55;101005.03;;;20.87;30.07
61014;BME280;46899;47.542;19.082;2023-05-08T13:25:59;101003.03;;;21.17;29.41
61014;BME280;46899;47.542;19.082;2023-05-08T13:29:01;101008.72;;;21.24;29.15
61014;BME280;46899;47.542;19.082;2023-05-08T13:32:04;100997.94;;;20.75;27.67
61014;BME280;46899;47.542;19.082;2023-05-08T13:35:07;101025.81;;;20.93;27.76
61014;BME280;46899;47.542;19.082;2023-05-08T13:38:09;101017.38;;;21.00;27.82
61014;BME280;46899;47.542;19.082;2023-05-08T13:41:12;101006.00;;;20.86;28.73
61014;BME280;46899;47.542;19.082;2023-05-08T13:44:15;101013.72;;;20.50;29.58
61014;BME280;46899;47.542;19.082;2023-05-08T13:47:17;101007.56;;;20.76;29.52
61014;BME280;46899;47.542;19.082;2023-05-08T13:50:20;100997.59;;;20.67;28.79
61014;BME280;46899;47.542;19.082;2023-05-08T13:53:23;101008.59;;;20.73;27.72
61014;BME280;46899;47.542;19.082;2023-05-08T13:56:26;101009.81;;;20.94;25.34
61014;BME280;46899;47.542;19.082;2023-05-08T13:59:28;101002.13;;;20.91;24.94
61014;BME280;46899;47.542;19.082;2023-05-08T14:02:33;101012.22;;;20.72;26.10
61014;BME280;46899;47.542;19.082;2023-05-08T14:05:36;101004.78;;;20.65;27.00
61014;BME280;46899;47.542;19.082;2023-05-08T14:08:38;101004.47;;;20.30;26.34
61014;BME280;46899;47.542;19.082;2023-05-08T14:11:49;101002.13;;;20.25;26.72
61014;BME280;46899;47.542;19.082;2023-05-08T14:14:51;101004.53;;;20.55;26.83
61014;BME280;46899;47.542;19.082;2023-05-08T14:17:54;100999.19;;;20.16;27.27
61014;BME280;46899;47.542;19.082;2023-05-08T14:20:56;101003.97;;;20.23;26.05
61014;BME280;46899;47.542;19.082;2023-05-08T14:23:59;101000.84;;;20.17;26.82
61014;BME280;46899;47.542;19.082;2023-05-08T14:27:02;101002.63;;;20.30;27.15
61014;BME280;46899;47.542;19.082;2023-05-08T14:30:07;101013.56;;;20.38;25.88
61014;BME280;46899;47.542;19.082;2023-05-08T14:33:10;101007.41;;;20.25;25.70
61014;BME280;46899;47.542;19.082;2023-05-08T14:36:13;101016.06;;;20.27;26.43
61014;BME280;46899;47.542;19.082;2023-05-08T14:39:15;101008.75;;;20.04;25.21
61014;BME280;46899;47.542;19.082;2023-05-08T14:42:18;101013.28;;;19.88;25.72
61014;BME280;46899;47.542;19.082;2023-05-08T14:45:24;101015.38;;;19.83;26.18
61014;BME280;46899;47.542;19.082;2023-05-08T14:48:27;101012.72;;;19.97;26.03
61014;BME280;46899;47.542;19.082;2023-05-08T14:51:29;101010.34;;;19.78;25.33
61014;BME280;46899;47.542;19.082;2023-05-08T14:54:33;101017.81;;;19.72;21.72
61014;BME280;46899;47.542;19.082;2023-05-08T14:57:35;101013.09;;;19.77;23.40
61014;BME280;46899;47.542;19.082;2023-05-08T15:00:38;101007.81;;;19.63;23.04
61014;BME280;46899;47.542;19.082;2023-05-08T15:03:41;101010.75;;;19.58;23.02
61014;BME280;46899;47.542;19.082;2023-05-08T15:06:44;101013.28;;;19.60;23.81
61014;BME280;46899;47.542;19.082;2023-05-08T15:09:46;101006.22;;;19.60;24.81
61014;BME280;46899;47.542;19.082;2023-05-08T15:12:49;101010.34;;;19.36;25.36
61014;BME280;46899;47.542;19.082;2023-05-08T15:15:52;101013.50;;;19.57;25.30
61014;BME280;46899;47.542;19.082;2023-05-08T15:18:55;100999.44;;;19.56;24.53
61014;BME280;46899;47.542;19.082;2023-05-08T15:21:57;101007.66;;;19.22;24.81
61014;BME280;46899;47.542;19.082;2023-05-08T15:25:00;101004.09;;;19.23;24.37
61014;BME280;46899;47.542;19.082;2023-05-08T15:28:03;101011.81;;;19.12;24.49
61014;BME280;46899;47.542;19.082;2023-05-08T15:31:06;101005.22;;;19.05;25.63
61014;BME280;46899;47.542;19.082;2023-05-08T15:34:09;101013.44;;;19.15;26.43
61014;BME280;46899;47.542;19.082;2023-05-08T15:37:12;101006.25;;;19.17;26.82
61014;BME280;46899;47.542;19.082;2023-05-08T15:40:14;101006.34;;;19.15;28.15
61014;BME280;46899;47.542;19.082;2023-05-08T15:43:17;101007.31;;;19.14;28.92
61014;BME280;46899;47.542;19.082;2023-05-08T15:46:19;101009.47;;;19.07;29.65
61014;BME280;46899;47.542;19.082;2023-05-08T15:49:22;101015.56;;;19.08;30.70
61014;BME280;46899;47.542;19.082;2023-05-08T15:52:27;101015.63;;;18.92;31.67
61014;BME280;46899;47.542;19.082;2023-05-08T15:55:29;101004.22;;;18.92;31.21
61014;BME280;46899;47.542;19.082;2023-05-08T15:58:31;101009.13;;;18.68;31.27
61014;BME280;46899;47.542;19.082;2023-05-08T16:01:34;101008.81;;;18.59;31.91
61014;BME280;46899;47.542;19.082;2023-05-08T16:04:37;101009.66;;;18.59;32.11
61014;BME280;46899;47.542;19.082;2023-05-08T16:07:39;101012.63;;;18.37;32.92
61014;BME280;46899;47.542;19.082;2023-05-08T16:10:42;101009.25;;;18.35;33.07
61014;BME280;46899;47.542;19.082;2023-05-08T16:13:45;101012.16;;;18.31;33.02
61014;BME280;46899;47.542;19.082;2023-05-08T16:16:47;101010.88;;;18.22;33.97
61014;BME280;46899;47.542;19.082;2023-05-08T16:19:50;101017.78;;;18.25;33.99
61014;BME280;46899;47.542;19.082;2023-05-08T16:22:53;101013.50;;;18.07;33.88
61014;BME280;46899;47.542;19.082;2023-05-08T16:25:56;101021.91;;;17.98;34.03
61014;BME280;46899;47.542;19.082;2023-05-08T16:28:59;101020.28;;;17.80;34.54
61014;BME280;46899;47.542;19.082;2023-05-08T16:32:01;101023.81;;;17.63;34.96
61014;BME280;46899;47.542;19.082;2023-05-08T16:35:04;101037.53;;;17.52;35.51
61014;BME280;46899;47.542;19.082;2023-05-08T16:38:07;101052.09;;;17.42;36.35
61014;BME280;46899;47.542;19.082;2023-05-08T16:41:10;101049.63;;;17.22;37.64
61014;BME280;46899;47.542;19.082;2023-05-08T16:44:13;101050.41;;;17.07;38.68